sensor_id;sensor_type;location;lat;lon;timestamp;pressure;altitude;pressure_sealevel;temperature
43802;BMP280;29429;51.074;13.764;2023-02-28T00:01:27;101359.69;;;2.24
43802;BMP280;29429;51.074;13.764;2023-02-28T00:03:55;101366.75;;;2.23
43802;BMP280;29429;51.074;13.764;2023-02-28T00:06:23;101357.91;;;2.24
43802;BMP280;29429;51.074;13.764;2023-02-28T00:08:50;101352.50;;;2.26
43802;BMP280;29429;51.074;13.764;2023-02-28T00:11:17;101356.22;;;2.23
43802;BMP280;29429;51.074;13.764;2023-02-28T00:13:46;101361.69;;;2.20
43802;BMP280;29429;51.074;13.764;2023-02-28T00:16:18;101353.50;;;2.12
43802;BMP280;29429;51.074;13.764;2023-02-28T00:18:46;101353.97;;;2.06
43802;BMP280;29429;51.074;13.764;2023-02-28T00:21:15;101353.78;;;1.97
43802;BMP280;29429;51.074;13.764;2023-02-28T00:23:43;101351.91;;;1.86
43802;BMP280;29429;51.074;13.764;2023-02-28T00:26:10;101353.31;;;1.79
43802;BMP280;29429;51.074;13.764;2023-02-28T00:28:38;101346.69;;;1.73
43802;BMP280;29429;51.074;13.764;2023-02-28T00:31:05;101340.81;;;1.70
43802;BMP280;29429;51.074;13.764;2023-02-28T00:33:34;101346.41;;;1.65
43802;BMP280;29429;51.074;13.764;2023-02-28T00:36:06;101338.84;;;1.61
43802;BMP280;29429;51.074;13.764;2023-02-28T00:38:36;101338.84;;;1.61
43802;BMP280;29429;51.074;13.764;2023-02-28T00:41:04;101337.28;;;1.58
43802;BMP280;29429;51.074;13.764;2023-02-28T00:43:38;101348.00;;;1.55
43802;BMP280;29429;51.074;13.764;2023-02-28T00:46:07;101348.09;;;1.54
43802;BMP280;29429;51.074;13.764;2023-02-28T00:48:34;101354.63;;;1.48
43802;BMP280;29429;51.074;13.764;2023-02-28T00:51:02;101354.94;;;1.44
43802;BMP280;29429;51.074;13.764;2023-02-28T00:53:30;101353.28;;;1.43
43802;BMP280;29429;51.074;13.764;2023-02-28T00:55:59;101360.66;;;1.38
43802;BMP280;29429;51.074;13.764;2023-02-28T00:58:27;101355.59;;;1.35
43802;BMP280;29429;51.074;13.764;2023-02-28T01:00:54;101364.63;;;1.31
43802;BMP280;29429;51.074;13.764;2023-02-28T01:03:21;101356.00;;;1.29
43802;BMP280;29429;51.074;13.764;2023-02-28T01:05:49;101362.00;;;1.31
43802;BMP280;29429;51.074;13.764;2023-02-28T01:08:16;101358.63;;;1.29
43802;BMP280;29429;51.074;13.764;2023-02-28T01:10:43;101356.22;;;1.26
43802;BMP280;29429;51.074;13.764;2023-02-28T01:13:11;101358.31;;;1.33
43802;BMP280;29429;51.074;13.764;2023-02-28T01:15:46;101352.22;;;1.33
43802;BMP280;29429;51.074;13.764;2023-02-28T01:18:15;101346.94;;;1.33
43802;BMP280;29429;51.074;13.764;2023-02-28T01:20:42;101347.06;;;1.31
43802;BMP280;29429;51.074;13.764;2023-02-28T01:23:09;101338.34;;;1.31
43802;BMP280;29429;51.074;13.764;2023-02-28T01:25:37;101341.69;;;1.33
43802;BMP280;29429;51.074;13.764;2023-02-28T01:28:05;101349.69;;;1.31
43802;BMP280;29429;51.074;13.764;2023-02-28T01:30:33;101353.06;;;1.33
43802;BMP280;29429;51.074;13.764;2023-02-28T01:33:01;101356.41;;;1.35
43802;BMP280;29429;51.074;13.764;2023-02-28T01:35:28;101341.69;;;1.33
43802;BMP280;29429;51.074;13.764;2023-02-28T01:37:55;101338.97;;;1.34
43802;BMP280;29429;51.074;13.764;2023-02-28T01:40:27;101349.59;;;1.33
43802;BMP280;29429;51.074;13.764;2023-02-28T01:42:55;101342.66;;;1.32
43802;BMP280;29429;51.074;13.764;2023-02-28T01:45:40;101346.00;;;1.34
43802;BMP280;29429;51.074;13.764;2023-02-28T01:48:08;101342.34;;;1.23
43802;BMP280;29429;51.074;13.764;2023-02-28T01:50:41;101348.34;;;1.26
43802;BMP280;29429;51.074;13.764;2023-02-28T01:53:16;101339.06;;;1.20
43802;BMP280;29429;51.074;13.764;2023-02-28T01:55:48;101330.59;;;1.16
43802;BMP280;29429;51.074;13.764;2023-02-28T01:58:16;101336.25;;;1.10
43802;BMP280;29429;51.074;13.764;2023-02-28T02:00:44;101342.13;;;1.14
43802;BMP280;29429;51.074;13.764;2023-02-28T02:03:15;101340.22;;;1.03
43802;BMP280;29429;51.074;13.764;2023-02-28T02:05:46;101334.44;;;0.98
43802;BMP280;29429;51.074;13.764;2023-02-28T02:08:23;101337.59;;;0.91
43802;BMP280;29429;51.074;13.764;2023-02-28T02:11:01;101330.56;;;0.91
43802;BMP280;29429;51.074;13.764;2023-02-28T02:36:30;101330.66;;;0.77
43802;BMP280;29429;51.074;13.764;2023-02-28T02:39:13;101328.03;;;0.77
43802;BMP280;29429;51.074;13.764;2023-02-28T02:41:54;101324.34;;;0.67
43802;BMP280;29429;51.074;13.764;2023-02-28T02:44:27;101323.41;;;0.68
43802;BMP280;29429;51.074;13.764;2023-02-28T02:47:08;101324.66;;;0.75
43802;BMP280;29429;51.074;13.764;2023-02-28T02:49:39;101333.50;;;0.74
43802;BMP280;29429;51.074;13.764;2023-02-28T02:52:12;101329.25;;;0.72
43802;BMP280;29429;51.074;13.764;2023-02-28T02:54:45;101335.38;;;0.72
43802;BMP280;29429;51.074;13.764;2023-02-28T02:57:38;101329.59;;;0.67
43802;BMP280;29429;51.074;13.764;2023-02-28T03:00:08;101340.19;;;0.66
43802;BMP280;29429;51.074;13.764;2023-02-28T03:02:38;101334.53;;;0.72
43802;BMP280;29429;51.074;13.764;2023-02-28T03:05:17;101335.56;;;0.69
43802;BMP280;29429;51.074;13.764;2023-02-28T03:07:44;101341.25;;;0.63
43802;BMP280;29429;51.074;13.764;2023-02-28T03:25:26;101344.47;;;0.27
43802;BMP280;29429;51.074;13.764;2023-02-28T03:28:33;101334.41;;;0.21
43802;BMP280;29429;51.074;13.764;2023-02-28T03:31:21;101333.28;;;0.11
43802;BMP280;29429;51.074;13.764;2023-02-28T03:34:24;101333.81;;;-0.11
43802;BMP280;29429;51.074;13.764;2023-02-28T03:37:02;101335.34;;;-0.21
43802;BMP280;29429;51.074;13.764;2023-02-28T03:39:44;101334.81;;;-0.26
43802;BMP280;29429;51.074;13.764;2023-02-28T03:42:18;101327.25;;;-0.30
43802;BMP280;29429;51.074;13.764;2023-02-28T03:45:04;101335.94;;;-0.30
43802;BMP280;29429;51.074;13.764;2023-02-28T03:47:38;101342.50;;;-0.37
43802;BMP280;29429;51.074;13.764;2023-02-28T03:50:18;101339.31;;;-0.42
43802;BMP280;29429;51.074;13.764;2023-02-28T03:55:47;101342.41;;;-0.49
43802;BMP280;29429;51.074;13.764;2023-02-28T04:01:31;101348.25;;;-0.58
43802;BMP280;29429;51.074;13.764;2023-02-28T04:04:01;101346.91;;;-0.66
43802;BMP280;29429;51.074;13.764;2023-02-28T04:06:32;101354.03;;;-0.68
43802;BMP280;29429;51.074;13.764;2023-02-28T04:09:01;101355.06;;;-0.70
43802;BMP280;29429;51.074;13.764;2023-02-28T04:11:40;101354.50;;;-0.75
43802;BMP280;29429;51.074;13.764;2023-02-28T04:14:11;101357.28;;;-0.78
43802;BMP280;29429;51.074;13.764;2023-02-28T04:16:41;101360.66;;;-0.76
43802;BMP280;29429;51.074;13.764;2023-02-28T04:19:10;101373.00;;;-0.78
43802;BMP280;29429;51.074;13.764;2023-02-28T04:21:50;101363.56;;;-0.81
43802;BMP280;29429;51.074;13.764;2023-02-28T04:24:26;101370.84;;;-0.86
43802;BMP280;29429;51.074;13.764;2023-02-28T04:26:56;101368.25;;;-0.86
43802;BMP280;29429;51.074;13.764;2023-02-28T04:29:27;101378.59;;;-0.84
43802;BMP280;29429;51.074;13.764;2023-02-28T04:31:56;101381.63;;;-0.90
43802;BMP280;29429;51.074;13.764;2023-02-28T04:34:26;101374.84;;;-0.94
43802;BMP280;29429;51.074;13.764;2023-02-28T04:36:55;101382.88;;;-0.97
43802;BMP280;29429;51.074;13.764;2023-02-28T04:39:39;101380.44;;;-1.00
43802;BMP280;29429;51.074;13.764;2023-02-28T04:42:06;101392.72;;;-1.01
43802;BMP280;29429;51.074;13.764;2023-02-28T04:44:33;101381.41;;;-1.01
43802;BMP280;29429;51.074;13.764;2023-02-28T04:47:00;101376.00;;;-0.98
43802;BMP280;29429;51.074;13.764;2023-02-28T04:49:27;101384.75;;;-0.99
43802;BMP280;29429;51.074;13.764;2023-02-28T04:51:54;101373.72;;;-1.04
43802;BMP280;29429;51.074;13.764;2023-02-28T04:54:22;101379.69;;;-1.02
43802;BMP280;29429;51.074;13.764;2023-02-28T04:56:49;101372.59;;;-1.00
43802;BMP280;29429;51.074;13.764;2023-02-28T04:59:17;101373.91;;;-1.07
43802;BMP280;29429;51.074;13.764;2023-02-28T05:01:49;101376.22;;;-1.17
43802;BMP280;29429;51.074;13.764;2023-02-28T05:04:16;101383.97;;;-1.15
43802;BMP280;29429;51.074;13.764;2023-02-28T05:06:44;101379.66;;;-1.16
43802;BMP280;29429;51.074;13.764;2023-02-28T05:09:11;101381.28;;;-1.14
43802;BMP280;29429;51.074;13.764;2023-02-28T05:11:39;101385.00;;;-1.18
43802;BMP280;29429;51.074;13.764;2023-02-28T05:14:15;101388.63;;;-1.20
43802;BMP280;29429;51.074;13.764;2023-02-28T05:16:42;101387.16;;;-1.25
43802;BMP280;29429;51.074;13.764;2023-02-28T05:19:10;101386.53;;;-1.30
43802;BMP280;29429;51.074;13.764;2023-02-28T05:21:40;101397.22;;;-1.33
43802;BMP280;29429;51.074;13.764;2023-02-28T05:24:11;101395.34;;;-1.31
43802;BMP280;29429;51.074;13.764;2023-02-28T05:26:42;101399.03;;;-1.35
43802;BMP280;29429;51.074;13.764;2023-02-28T05:29:10;101402.78;;;-1.39
43802;BMP280;29429;51.074;13.764;2023-02-28T05:31:37;101399.16;;;-1.36
43802;BMP280;29429;51.074;13.764;2023-02-28T05:34:04;101402.97;;;-1.42
43802;BMP280;29429;51.074;13.764;2023-02-28T05:36:32;101400.34;;;-1.42
43802;BMP280;29429;51.074;13.764;2023-02-28T05:38:59;101398.41;;;-1.38
43802;BMP280;29429;51.074;13.764;2023-02-28T05:41:26;101400.91;;;-1.37
43802;BMP280;29429;51.074;13.764;2023-02-28T05:43:54;101393.25;;;-1.40
43802;BMP280;29429;51.074;13.764;2023-02-28T05:46:21;101401.84;;;-1.38
43802;BMP280;29429;51.074;13.764;2023-02-28T05:48:50;101403.69;;;-1.40
43802;BMP280;29429;51.074;13.764;2023-02-28T05:51:17;101402.22;;;-1.44
43802;BMP280;29429;51.074;13.764;2023-02-28T05:53:45;101407.28;;;-1.41
43802;BMP280;29429;51.074;13.764;2023-02-28T05:56:12;101404.81;;;-1.44
43802;BMP280;29429;51.074;13.764;2023-02-28T05:58:39;101406.50;;;-1.43
43802;BMP280;29429;51.074;13.764;2023-02-28T06:01:23;101408.19;;;-1.42
43802;BMP280;29429;51.074;13.764;2023-02-28T06:03:50;101410.22;;;-1.47
43802;BMP280;29429;51.074;13.764;2023-02-28T06:06:18;101418.81;;;-1.45
43802;BMP280;29429;51.074;13.764;2023-02-28T06:08:45;101415.28;;;-1.44
43802;BMP280;29429;51.074;13.764;2023-02-28T06:11:12;101419.56;;;-1.43
43802;BMP280;29429;51.074;13.764;2023-02-28T06:13:39;101419.41;;;-1.40
43802;BMP280;29429;51.074;13.764;2023-02-28T06:16:08;101420.16;;;-1.38
43802;BMP280;29429;51.074;13.764;2023-02-28T06:18:35;101428.84;;;-1.37
43802;BMP280;29429;51.074;13.764;2023-02-28T06:21:03;101419.56;;;-1.43
43802;BMP280;29429;51.074;13.764;2023-02-28T06:23:30;101434.19;;;-1.39
43802;BMP280;29429;51.074;13.764;2023-02-28T06:25:57;101431.47;;;-1.37
43802;BMP280;29429;51.074;13.764;2023-02-28T06:28:25;101431.41;;;-1.36
43802;BMP280;29429;51.074;13.764;2023-02-28T06:30:52;101435.59;;;-1.33
43802;BMP280;29429;51.074;13.764;2023-02-28T06:33:20;101435.44;;;-1.30
43802;BMP280;29429;51.074;13.764;2023-02-28T06:35:50;101440.56;;;-1.29
43802;BMP280;29429;51.074;13.764;2023-02-28T06:38:18;101440.56;;;-1.29
43802;BMP280;29429;51.074;13.764;2023-02-28T06:40:54;101460.31;;;-1.23
43802;BMP280;29429;51.074;13.764;2023-02-28T06:43:22;101455.25;;;-1.26
43802;BMP280;29429;51.074;13.764;2023-02-28T06:45:49;101458.72;;;-1.26
43802;BMP280;29429;51.074;13.764;2023-02-28T06:48:16;101464.53;;;-1.20
43802;BMP280;29429;51.074;13.764;2023-02-28T06:50:44;101465.84;;;-1.13
43802;BMP280;29429;51.074;13.764;2023-02-28T06:53:12;101463.66;;;-1.05
43802;BMP280;29429;51.074;13.764;2023-02-28T06:56:23;101470.44;;;-0.87
43802;BMP280;29429;51.074;13.764;2023-02-28T06:58:55;101481.13;;;-0.76
43802;BMP280;29429;51.074;13.764;2023-02-28T07:02:17;101484.19;;;-0.54
43802;BMP280;29429;51.074;13.764;2023-02-28T07:04:46;101474.47;;;-0.38
43802;BMP280;29429;51.074;13.764;2023-02-28T07:07:23;101470.91;;;-0.23
43802;BMP280;29429;51.074;13.764;2023-02-28T07:09:55;101475.88;;;-0.04
43802;BMP280;29429;51.074;13.764;2023-02-28T07:12:26;101467.72;;;0.15
43802;BMP280;29429;51.074;13.764;2023-02-28T07:14:57;101468.25;;;0.34
43802;BMP280;29429;51.074;13.764;2023-02-28T07:17:28;101472.03;;;0.56
43802;BMP280;29429;51.074;13.764;2023-02-28T07:19:55;101476.09;;;0.75
43802;BMP280;29429;51.074;13.764;2023-02-28T07:22:23;101468.47;;;0.84
43802;BMP280;29429;51.074;13.764;2023-02-28T07:25:08;101475.94;;;0.90
43802;BMP280;29429;51.074;13.764;2023-02-28T07:30:46;101473.22;;;0.92
43802;BMP280;29429;51.074;13.764;2023-02-28T07:33:17;101472.00;;;0.97
43802;BMP280;29429;51.074;13.764;2023-02-28T07:36:24;101474.94;;;1.05
43802;BMP280;29429;51.074;13.764;2023-02-28T07:39:17;101478.72;;;1.14
43802;BMP280;29429;51.074;13.764;2023-02-28T07:41:55;101470.03;;;1.13
43802;BMP280;29429;51.074;13.764;2023-02-28T07:45:04;101478.34;;;1.20
43802;BMP280;29429;51.074;13.764;2023-02-28T07:47:42;101475.19;;;1.28
43802;BMP280;29429;51.074;13.764;2023-02-28T07:50:19;101480.06;;;1.34
43802;BMP280;29429;51.074;13.764;2023-02-28T07:53:59;101480.56;;;1.39
43802;BMP280;29429;51.074;13.764;2023-02-28T07:57:07;101480.09;;;1.59
43802;BMP280;29429;51.074;13.764;2023-02-28T08:00:30;101486.59;;;1.78
43802;BMP280;29429;51.074;13.764;2023-02-28T08:03:00;101479.97;;;1.98
43802;BMP280;29429;51.074;13.764;2023-02-28T08:05:41;101473.28;;;2.18
43802;BMP280;29429;51.074;13.764;2023-02-28T08:08:12;101465.59;;;2.27
43802;BMP280;29429;51.074;13.764;2023-02-28T08:10:46;101479.09;;;2.46
43802;BMP280;29429;51.074;13.764;2023-02-28T08:13:22;101477.19;;;2.61
43802;BMP280;29429;51.074;13.764;2023-02-28T08:15:50;101477.41;;;2.82
43802;BMP280;29429;51.074;13.764;2023-02-28T08:18:21;101448.44;;;2.82
43802;BMP280;29429;51.074;13.764;2023-02-28T08:20:56;101461.59;;;3.05
43802;BMP280;29429;51.074;13.764;2023-02-28T08:23:25;101452.19;;;3.25
43802;BMP280;29429;51.074;13.764;2023-02-28T08:26:18;101469.50;;;3.51
43802;BMP280;29429;51.074;13.764;2023-02-28T08:28:46;101472.41;;;3.59
43802;BMP280;29429;51.074;13.764;2023-02-28T08:31:18;101462.94;;;3.79
43802;BMP280;29429;51.074;13.764;2023-02-28T08:33:54;101472.34;;;3.94
43802;BMP280;29429;51.074;13.764;2023-02-28T08:36:27;101459.47;;;3.90
43802;BMP280;29429;51.074;13.764;2023-02-28T08:38:57;101454.81;;;3.93
43802;BMP280;29429;51.074;13.764;2023-02-28T08:41:31;101465.72;;;4.00
43802;BMP280;29429;51.074;13.764;2023-02-28T08:44:03;101463.69;;;4.14
43802;BMP280;29429;51.074;13.764;2023-02-28T08:46:46;101465.47;;;4.25
43802;BMP280;29429;51.074;13.764;2023-02-28T08:49:17;101466.88;;;4.29
43802;BMP280;29429;51.074;13.764;2023-02-28T08:52:10;101468.81;;;4.38
43802;BMP280;29429;51.074;13.764;2023-02-28T08:55:04;101464.38;;;4.39
43802;BMP280;29429;51.074;13.764;2023-02-28T08:57:48;101467.09;;;4.59
43802;BMP280;29429;51.074;13.764;2023-02-28T09:00:37;101465.50;;;4.79
43802;BMP280;29429;51.074;13.764;2023-02-28T09:03:40;101463.75;;;4.89
43802;BMP280;29429;51.074;13.764;2023-02-28T09:06:37;101461.44;;;4.96
43802;BMP280;29429;51.074;13.764;2023-02-28T09:09:08;101452.88;;;5.03
43802;BMP280;29429;51.074;13.764;2023-02-28T09:11:37;101459.34;;;5.10
43802;BMP280;29429;51.074;13.764;2023-02-28T09:14:04;101459.09;;;5.13
43802;BMP280;29429;51.074;13.764;2023-02-28T09:16:32;101456.38;;;5.04
43802;BMP280;29429;51.074;13.764;2023-02-28T09:19:00;101462.09;;;5.09
43802;BMP280;29429;51.074;13.764;2023-02-28T09:21:28;101460.81;;;5.03
43802;BMP280;29429;51.074;13.764;2023-02-28T09:23:57;101454.25;;;4.98
43802;BMP280;29429;51.074;13.764;2023-02-28T09:26:30;101457.50;;;4.90
43802;BMP280;29429;51.074;13.764;2023-02-28T09:29:22;101449.47;;;4.91
43802;BMP280;29429;51.074;13.764;2023-02-28T09:32:18;101458.34;;;4.90
43802;BMP280;29429;51.074;13.764;2023-02-28T09:34:46;101449.94;;;4.85
43802;BMP280;29429;51.074;13.764;2023-02-28T09:37:26;101454.41;;;5.06
43802;BMP280;29429;51.074;13.764;2023-02-28T09:39:59;101444.19;;;5.12
43802;BMP280;29429;51.074;13.764;2023-02-28T09:42:33;101440.13;;;5.08
43802;BMP280;29429;51.074;13.764;2023-02-28T09:45:06;101442.28;;;5.03
43802;BMP280;29429;51.074;13.764;2023-02-28T09:47:43;101438.09;;;5.01
43802;BMP280;29429;51.074;13.764;2023-02-28T09:52:55;101448.81;;;4.67
43802;BMP280;29429;51.074;13.764;2023-02-28T09:55:39;101446.81;;;4.49
43802;BMP280;29429;51.074;13.764;2023-02-28T10:10:50;101449.88;;;4.00
43802;BMP280;29429;51.074;13.764;2023-02-28T10:16:34;101460.78;;;3.84
43802;BMP280;29429;51.074;13.764;2023-02-28T10:19:20;101458.53;;;3.91
43802;BMP280;29429;51.074;13.764;2023-02-28T10:22:36;101456.22;;;3.97
43802;BMP280;29429;51.074;13.764;2023-02-28T10:24:57;101457.31;;;4.17
43802;BMP280;29429;51.074;13.764;2023-02-28T10:27:34;101461.38;;;4.32
43802;BMP280;29429;51.074;13.764;2023-02-28T10:30:03;101458.00;;;4.41
43802;BMP280;29429;51.074;13.764;2023-02-28T10:32:34;101456.06;;;4.43
43802;BMP280;29429;51.074;13.764;2023-02-28T10:37:53;101454.13;;;4.56
43802;BMP280;29429;51.074;13.764;2023-02-28T10:43:03;101456.25;;;4.73
43802;BMP280;29429;51.074;13.764;2023-02-28T10:45:35;101456.19;;;4.84
43802;BMP280;29429;51.074;13.764;2023-02-28T10:48:41;101448.00;;;4.87
43802;BMP280;29429;51.074;13.764;2023-02-28T10:51:14;101444.81;;;4.84
43802;BMP280;29429;51.074;13.764;2023-02-28T10:53:52;101443.13;;;5.04
43802;BMP280;29429;51.074;13.764;2023-02-28T10:56:29;101436.91;;;5.25
43802;BMP280;29429;51.074;13.764;2023-02-28T10:59:28;101436.19;;;5.44
43802;BMP280;29429;51.074;13.764;2023-02-28T11:01:49;101435.28;;;5.34
43802;BMP280;29429;51.074;13.764;2023-02-28T11:07:03;101433.63;;;4.80
43802;BMP280;29429;51.074;13.764;2023-02-28T11:09:35;101429.16;;;4.60
43802;BMP280;29429;51.074;13.764;2023-02-28T11:12:22;101423.97;;;4.59
43802;BMP280;29429;51.074;13.764;2023-02-28T11:15:06;101429.22;;;4.70
43802;BMP280;29429;51.074;13.764;2023-02-28T11:17:33;101429.38;;;4.68
43802;BMP280;29429;51.074;13.764;2023-02-28T11:20:18;101431.25;;;4.66
43802;BMP280;29429;51.074;13.764;2023-02-28T11:22:47;101419.75;;;4.67
43802;BMP280;29429;51.074;13.764;2023-02-28T11:25:37;101417.34;;;4.64
43802;BMP280;29429;51.074;13.764;2023-02-28T11:33:55;101410.34;;;4.31
43802;BMP280;29429;51.074;13.764;2023-02-28T11:36:27;101403.56;;;4.07
43802;BMP280;29429;51.074;13.764;2023-02-28T11:39:00;101398.06;;;3.99
43802;BMP280;29429;51.074;13.764;2023-02-28T11:45:02;101400.16;;;4.16
43802;BMP280;29429;51.074;13.764;2023-02-28T11:50:32;101388.69;;;4.49
43802;BMP280;29429;51.074;13.764;2023-02-28T11:56:10;101394.66;;;4.62
43802;BMP280;29429;51.074;13.764;2023-02-28T12:00:00;101389.44;;;4.71
43802;BMP280;29429;51.074;13.764;2023-02-28T12:02:36;101381.44;;;4.62
43802;BMP280;29429;51.074;13.764;2023-02-28T12:11:44;101386.19;;;4.47
43802;BMP280;29429;51.074;13.764;2023-02-28T12:17:34;101387.84;;;4.48
43802;BMP280;29429;51.074;13.764;2023-02-28T12:20:54;101389.31;;;4.52
43802;BMP280;29429;51.074;13.764;2023-02-28T12:23:47;101387.88;;;4.37
43802;BMP280;29429;51.074;13.764;2023-02-28T12:29:49;101387.19;;;4.35
43802;BMP280;29429;51.074;13.764;2023-02-28T12:32:33;101387.78;;;4.39
43802;BMP280;29429;51.074;13.764;2023-02-28T12:37:42;101385.25;;;4.37
43802;BMP280;29429;51.074;13.764;2023-02-28T12:40:21;101392.06;;;4.40
43802;BMP280;29429;51.074;13.764;2023-02-28T12:45:45;101394.06;;;4.58
43802;BMP280;29429;51.074;13.764;2023-02-28T12:48:24;101379.91;;;4.59
43802;BMP280;29429;51.074;13.764;2023-02-28T12:50:52;101381.84;;;4.57
43802;BMP280;29429;51.074;13.764;2023-02-28T12:59:02;101372.50;;;4.42
43802;BMP280;29429;51.074;13.764;2023-02-28T13:01:48;101373.19;;;4.23
43802;BMP280;29429;51.074;13.764;2023-02-28T13:04:52;101366.31;;;4.21
43802;BMP280;29429;51.074;13.764;2023-02-28T13:10:05;101364.88;;;4.28
43802;BMP280;29429;51.074;13.764;2023-02-28T13:12:35;101360.69;;;4.25
43802;BMP280;29429;51.074;13.764;2023-02-28T13:15:24;101370.41;;;4.25
43802;BMP280;29429;51.074;13.764;2023-02-28T13:17:55;101366.06;;;4.24
43802;BMP280;29429;51.074;13.764;2023-02-28T13:20:36;101366.53;;;4.29
43802;BMP280;29429;51.074;13.764;2023-02-28T13:24:10;101371.78;;;4.40
43802;BMP280;29429;51.074;13.764;2023-02-28T13:26:13;101367.81;;;4.46
43802;BMP280;29429;51.074;13.764;2023-02-28T13:42:46;101354.38;;;4.69
43802;BMP280;29429;51.074;13.764;2023-02-28T13:48:02;101350.84;;;4.80
43802;BMP280;29429;51.074;13.764;2023-02-28T13:50:40;101341.38;;;4.77
43802;BMP280;29429;51.074;13.764;2023-02-28T13:56:04;101337.44;;;4.92
43802;BMP280;29429;51.074;13.764;2023-02-28T14:02:00;101333.44;;;4.98
43802;BMP280;29429;51.074;13.764;2023-02-28T14:05:02;101329.00;;;4.99
43802;BMP280;29429;51.074;13.764;2023-02-28T14:07:49;101330.03;;;5.07
43802;BMP280;29429;51.074;13.764;2023-02-28T14:10:31;101324.59;;;5.09
43802;BMP280;29429;51.074;13.764;2023-02-28T14:13:36;101329.63;;;5.12
43802;BMP280;29429;51.074;13.764;2023-02-28T14:16:06;101327.00;;;5.12
43802;BMP280;29429;51.074;13.764;2023-02-28T14:18:37;101319.75;;;5.14
43802;BMP280;29429;51.074;13.764;2023-02-28T14:21:32;101317.25;;;5.12
43802;BMP280;29429;51.074;13.764;2023-02-28T14:24:29;101321.00;;;5.10
43802;BMP280;29429;51.074;13.764;2023-02-28T14:33:31;101313.47;;;5.05
43802;BMP280;29429;51.074;13.764;2023-02-28T14:38:46;101304.50;;;4.97
43802;BMP280;29429;51.074;13.764;2023-02-28T14:41:28;101302.81;;;4.96
43802;BMP280;29429;51.074;13.764;2023-02-28T14:43:59;101312.84;;;4.92
43802;BMP280;29429;51.074;13.764;2023-02-28T14:46:38;101303.63;;;4.86
43802;BMP280;29429;51.074;13.764;2023-02-28T14:49:15;101300.53;;;4.81
43802;BMP280;29429;51.074;13.764;2023-02-28T14:51:43;101302.84;;;4.75
43802;BMP280;29429;51.074;13.764;2023-02-28T14:54:16;101297.25;;;4.68
43802;BMP280;29429;51.074;13.764;2023-02-28T14:56:50;101305.53;;;4.64
43802;BMP280;29429;51.074;13.764;2023-02-28T14:59:35;101307.00;;;4.57
43802;BMP280;29429;51.074;13.764;2023-02-28T15:04:41;101315.81;;;4.46
43802;BMP280;29429;51.074;13.764;2023-02-28T15:07:14;101309.94;;;4.43
43802;BMP280;29429;51.074;13.764;2023-02-28T15:09:41;101318.72;;;4.43
43802;BMP280;29429;51.074;13.764;2023-02-28T15:12:14;101317.16;;;4.41
43802;BMP280;29429;51.074;13.764;2023-02-28T15:14:43;101313.81;;;4.39
43802;BMP280;29429;51.074;13.764;2023-02-28T15:17:24;101318.25;;;4.38
43802;BMP280;29429;51.074;13.764;2023-02-28T15:19:53;101319.00;;;4.29
43802;BMP280;29429;51.074;13.764;2023-02-28T15:22:34;101315.66;;;4.27
43802;BMP280;29429;51.074;13.764;2023-02-28T15:25:05;101319.53;;;4.23
43802;BMP280;29429;51.074;13.764;2023-02-28T15:27:35;101321.69;;;4.18
43802;BMP280;29429;51.074;13.764;2023-02-28T15:30:13;101315.13;;;4.12
43802;BMP280;29429;51.074;13.764;2023-02-28T15:32:42;101304.66;;;4.11
43802;BMP280;29429;51.074;13.764;2023-02-28T15:38:26;101314.91;;;4.04
43802;BMP280;29429;51.074;13.764;2023-02-28T15:40:58;101317.88;;;4.00
43802;BMP280;29429;51.074;13.764;2023-02-28T15:43:32;101313.69;;;3.97
43802;BMP280;29429;51.074;13.764;2023-02-28T15:46:13;101313.84;;;3.96
43802;BMP280;29429;51.074;13.764;2023-02-28T15:51:22;101324.03;;;3.89
43802;BMP280;29429;51.074;13.764;2023-02-28T15:54:05;101312.91;;;3.86
43802;BMP280;29429;51.074;13.764;2023-02-28T15:56:44;101320.44;;;3.79
43802;BMP280;29429;51.074;13.764;2023-02-28T15:59:22;101313.63;;;3.77
43802;BMP280;29429;51.074;13.764;2023-02-28T16:07:41;101315.56;;;3.63
43802;BMP280;29429;51.074;13.764;2023-02-28T16:10:12;101315.22;;;3.57
43802;BMP280;29429;51.074;13.764;2023-02-28T16:12:41;101316.41;;;3.53
43802;BMP280;29429;51.074;13.764;2023-02-28T16:15:22;101311.28;;;3.51
43802;BMP280;29429;51.074;13.764;2023-02-28T16:17:50;101309.94;;;3.46
43802;BMP280;29429;51.074;13.764;2023-02-28T16:20:23;101318.22;;;3.41
43802;BMP280;29429;51.074;13.764;2023-02-28T16:22:51;101320.34;;;3.36
43802;BMP280;29429;51.074;13.764;2023-02-28T16:25:24;101318.00;;;3.33
43802;BMP280;29429;51.074;13.764;2023-02-28T16:27:55;101303.34;;;3.29
43802;BMP280;29429;51.074;13.764;2023-02-28T16:30:28;101314.88;;;3.28
43802;BMP280;29429;51.074;13.764;2023-02-28T16:32:58;101313.66;;;3.21
43802;BMP280;29429;51.074;13.764;2023-02-28T16:35:25;101316.75;;;3.15
43802;BMP280;29429;51.074;13.764;2023-02-28T16:37:53;101318.19;;;3.08
43802;BMP280;29429;51.074;13.764;2023-02-28T16:40:25;101320.56;;;3.00
43802;BMP280;29429;51.074;13.764;2023-02-28T16:42:58;101324.88;;;2.90
43802;BMP280;29429;51.074;13.764;2023-02-28T16:45:28;101323.91;;;2.80
43802;BMP280;29429;51.074;13.764;2023-02-28T16:47:56;101321.94;;;2.71
43802;BMP280;29429;51.074;13.764;2023-02-28T16:50:26;101312.84;;;2.64
43802;BMP280;29429;51.074;13.764;2023-02-28T16:52:54;101323.81;;;2.58
43802;BMP280;29429;51.074;13.764;2023-02-28T16:55:23;101325.94;;;2.53
43802;BMP280;29429;51.074;13.764;2023-02-28T16:57:58;101326.41;;;2.46
43802;BMP280;29429;51.074;13.764;2023-02-28T17:00:27;101328.66;;;2.40
43802;BMP280;29429;51.074;13.764;2023-02-28T17:02:56;101330.69;;;2.36
43802;BMP280;29429;51.074;13.764;2023-02-28T17:05:23;101337.22;;;2.31
43802;BMP280;29429;51.074;13.764;2023-02-28T17:07:50;101335.16;;;2.23
43802;BMP280;29429;51.074;13.764;2023-02-28T17:10:21;101337.50;;;2.15
43802;BMP280;29429;51.074;13.764;2023-02-28T17:12:49;101341.53;;;2.08
43802;BMP280;29429;51.074;13.764;2023-02-28T17:15:22;101340.31;;;2.01
43802;BMP280;29429;51.074;13.764;2023-02-28T17:17:52;101347.81;;;1.95
43802;BMP280;29429;51.074;13.764;2023-02-28T17:20:22;101342.47;;;1.83